KTMA/TMA METAR and TAF weather

Enter ICAO airport designator
Station Type Date Time Source
KTMA METAR 2020/11/27 01:55 UTC NOAA

KTMA 270155Z AUTO 19006KT 10SM OVC007 20/19 A3010 RMK AO2 T02030185


Station Type Date Time Source
KTMA Decoded METAR 2020/11/27 01:55 UTC NOAA

Station name not available
Nov 26, 2020 - 08:55 PM EST / 2020.11.27 0155 UTC
Wind: from the S (190 degrees) at 7 MPH (6 KT):0
Visibility: 10 mile(s):0
Sky conditions: overcast
Temperature: 68.5 F (20.3 C)
Dew Point: 65.3 F (18.5 C)
Relative Humidity: 89%
Pressure (altimeter): 30.1 in. Hg (1019 hPa)
ob: KTMA 270155Z AUTO 19006KT 10SM OVC007 20/19 A3010 RMK AO2 T02030185
cycle: 2

Station Type Date Time Source
KTMA TAF UTC NOAA

Error!

Example: see airport list